Time;durP1;ratioP1;P1;durP2;ratioP2;P2;SDS_P1;SDS_P2;PMS_P1;PMS_P2;Temp;Humidity;BMP_temperature;BMP_pressure;BME280_temperature;BME280_humidity;BME280_pressure;Samples;Min_cycle;Max_cycle;Signal;HPM_P1;HPM_P2
2021/06/19 00:00:42;;;;;;;19.95;16.70;;;;;;;20.58;56.44;100272.36;2040890;87;31684;-62
2021/06/19 00:03:46;;;;;;;24.90;17.37;;;;;;;20.56;56.54;100269.39;2046592;85;30567;-62
2021/06/19 00:06:47;;;;;;;21.73;18.73;;;;;;;20.54;56.71;100271.39;2046469;87;29396;-62
2021/06/19 00:09:49;;;;;;;18.42;16.48;;;;;;;20.49;57.03;100270.47;2041016;87;27510;-60
2021/06/19 00:12:52;;;;;;;18.42;16.52;;;;;;;20.47;56.91;100271.11;2025890;87;28750;-61
2021/06/19 00:15:55;;;;;;;18.52;16.45;;;;;;;20.45;57.21;100278.55;2014368;88;31029;-62
2021/06/19 00:18:58;;;;;;;23.22;16.02;;;;;;;20.41;57.31;100281.22;2014469;88;33578;-62
2021/06/19 00:22:00;;;;;;;18.85;16.40;;;;;;;20.38;57.45;100279.61;2041070;87;29443;-63
2021/06/19 00:25:03;;;;;;;19.85;16.97;;;;;;;20.31;57.46;100274.39;2046724;85;27407;-62
2021/06/19 00:28:06;;;;;;;19.48;16.27;;;;;;;20.27;57.44;100282.47;2040779;87;28825;-63
2021/06/19 00:31:08;;;;;;;17.45;15.55;;;;;;;20.25;57.59;100281.73;2041005;87;31104;-62
2021/06/19 00:34:11;;;;;;;21.45;16.82;;;;;;;20.22;57.68;100275.21;2046581;87;32995;-62
2021/06/19 00:37:14;;;;;;;17.25;15.20;;;;;;;20.17;58.00;100275.64;2024039;87;29331;-62
2021/06/19 00:40:18;;;;;;;19.80;15.63;;;;;;;20.12;58.08;100277.42;2041109;87;27480;-62
2021/06/19 00:43:20;;;;;;;20.23;15.90;;;;;;;20.08;58.13;100282.77;2014874;88;28836;-63
2021/06/19 00:46:22;;;;;;;17.87;15.70;;;;;;;20.05;58.21;100288.48;2040615;86;31151;-61
2021/06/19 00:49:26;;;;;;;16.90;14.60;;;;;;;20.00;58.46;100286.70;2014467;88;33127;-63
2021/06/19 00:52:29;;;;;;;18.45;14.68;;;;;;;19.96;58.55;100292.89;2087955;85;29458;-62
2021/06/19 00:55:31;;;;;;;18.75;15.23;;;;;;;19.93;58.57;100291.83;2041125;87;27424;-63
2021/06/19 00:58:34;;;;;;;17.80;15.20;;;;;;;19.91;58.72;100289.74;2046585;85;28739;-62
2021/06/19 01:01:37;;;;;;;19.52;15.72;;;;;;;19.89;58.72;100290.38;2046468;86;31239;-63
2021/06/19 01:04:39;;;;;;;19.77;15.63;;;;;;;19.86;58.91;100286.02;2040992;86;33013;-61
2021/06/19 01:07:41;;;;;;;23.85;17.55;;;;;;;19.84;59.16;100285.80;2041010;87;29406;-63
2021/06/19 01:10:44;;;;;;;20.32;16.15;;;;;;;19.80;59.24;100288.42;2046580;85;27548;-63
2021/06/19 01:13:46;;;;;;;23.27;16.42;;;;;;;19.75;59.25;100288.84;2041025;87;28742;-63
2021/06/19 01:16:50;;;;;;;20.77;17.05;;;;;;;19.68;59.45;100295.32;2040961;87;31096;-63
2021/06/19 01:20:08;;;;;;;20.55;17.25;;;;;;;19.63;59.68;100288.58;2046760;85;33019;-63
2021/06/19 01:23:11;;;;;;;24.10;17.07;;;;;;;19.55;59.95;100290.61;2045825;86;29478;-63
2021/06/19 01:26:18;;;;;;;18.90;16.23;;;;;;;19.47;60.14;100284.49;2041091;87;27535;-62
2021/06/19 01:29:22;;;;;;;22.17;16.75;;;;;;;19.42;60.16;100286.74;2041207;87;28829;-62
2021/06/19 01:32:29;;;;;;;21.17;16.67;;;;;;;19.42;60.39;100290.82;2014655;88;31109;-61
2021/06/19 01:35:31;;;;;;;21.73;17.75;;;;;;;19.42;60.56;100293.05;2087977;84;32876;-63
2021/06/19 01:38:40;;;;;;;23.52;17.87;;;;;;;19.41;60.69;100295.41;2046419;86;29318;-63
2021/06/19 01:41:43;;;;;;;23.32;16.40;;;;;;;19.40;61.02;100293.68;2046129;86;27514;-62
2021/06/19 01:44:45;;;;;;;25.37;17.77;;;;;;;19.40;61.11;100295.52;2040857;86;28730;-62
2021/06/19 01:47:48;;;;;;;20.15;17.02;;;;;;;19.40;61.37;100299.12;2014459;88;31159;-63
2021/06/19 01:50:50;;;;;;;22.55;17.12;;;;;;;19.39;61.28;100300.11;2088107;85;33079;-63
2021/06/19 01:53:54;;;;;;;24.18;17.85;;;;;;;19.39;61.35;100301.95;2087987;85;29476;-63
2021/06/19 01:56:56;;;;;;;19.57;16.50;;;;;;;19.36;61.43;100296.30;2087970;85;27487;-62
2021/06/19 02:00:07;;;;;;;25.55;16.30;;;;;;;19.33;61.51;100291.63;2040423;87;28630;-61
2021/06/19 02:03:09;;;;;;;19.92;16.37;;;;;;;19.30;62.00;100295.45;2040983;86;31018;-62
2021/06/19 02:06:13;;;;;;;27.65;17.67;;;;;;;19.28;62.15;100292.01;2041166;87;33578;-62
2021/06/19 02:09:16;;;;;;;19.00;17.00;;;;;;;19.27;62.08;100293.88;2014910;87;29418;-62
2021/06/19 02:12:19;;;;;;;18.77;16.45;;;;;;;19.27;62.38;100291.67;2087986;85;27486;-62
2021/06/19 02:15:22;;;;;;;19.67;17.20;;;;;;;19.24;62.48;100291.42;2087873;85;28727;-63
2021/06/19 02:18:25;;;;;;;19.95;17.75;;;;;;;19.21;62.48;100291.69;2040925;87;31134;-60
2021/06/19 02:21:27;;;;;;;22.58;18.62;;;;;;;19.18;62.62;100297.89;2046519;85;33677;-62
2021/06/19 02:24:29;;;;;;;26.15;18.17;;;;;;;19.13;62.88;100295.57;2046247;87;29626;-60
2021/06/19 02:27:33;;;;;;;19.60;17.20;;;;;;;19.10;62.92;100298.06;2046830;85;27454;-63
2021/06/19 02:30:42;;;;;;;19.07;16.95;;;;;;;19.08;62.90;100297.33;2040842;86;28745;-63
2021/06/19 02:33:46;;;;;;;21.73;16.57;;;;;;;19.08;62.90;100292.38;2006289;88;31359;-63
2021/06/19 02:36:48;;;;;;;18.35;16.42;;;;;;;19.06;62.92;100292.52;2014691;88;33053;-63
2021/06/19 02:39:50;;;;;;;24.20;17.77;;;;;;;19.07;63.07;100296.09;2040917;87;29392;-63
2021/06/19 02:42:54;;;;;;;23.83;17.12;;;;;;;19.07;63.10;100299.68;2046610;85;27503;-64
2021/06/19 02:45:59;;;;;;;21.90;17.82;;;;;;;19.09;63.10;100292.75;2040906;86;28798;-64
2021/06/19 02:49:00;;;;;;;19.80;17.12;;;;;;;19.08;63.21;100291.91;2040791;87;31094;-63
2021/06/19 02:52:02;;;;;;;23.50;18.50;;;;;;;19.08;63.10;100292.38;2014483;87;33075;-63
2021/06/19 02:55:05;;;;;;;24.18;16.95;;;;;;;19.09;63.23;100299.53;2040946;87;29427;-64
2021/06/19 02:58:09;;;;;;;22.77;17.40;;;;;;;19.12;63.15;100287.91;2046714;87;27480;-63
2021/06/19 03:01:12;;;;;;;24.87;18.37;;;;;;;19.14;63.27;100290.51;2041037;87;32157;-63
2021/06/19 03:04:15;;;;;;;20.35;17.25;;;;;;;19.14;63.19;100291.87;2041150;87;31104;-63
2021/06/19 03:07:17;;;;;;;22.80;17.00;;;;;;;19.15;63.22;100293.59;2046172;85;33118;-62
2021/06/19 03:10:23;;;;;;;17.98;16.00;;;;;;;19.17;63.46;100292.97;2046510;87;29398;-61
2021/06/19 03:13:26;;;;;;;20.85;15.35;;;;;;;19.22;63.34;100292.56;2041012;86;27504;-63
2021/06/19 03:16:29;;;;;;;18.07;16.17;;;;;;;19.30;63.30;100294.10;2040620;87;28333;-63
2021/06/19 03:19:31;;;;;;;19.82;16.55;;;;;;;19.37;63.38;100288.98;2039568;87;31157;-64
2021/06/19 03:22:58;;;;;;;25.43;17.62;;;;;;;19.43;63.35;100283.91;2046463;87;33051;-63
2021/06/19 03:26:01;;;;;;;18.90;16.93;;;;;;;19.51;63.24;100286.44;2046512;86;29982;-64
2021/06/19 03:29:05;;;;;;;24.65;19.25;;;;;;;19.60;63.24;100287.00;2041016;86;27616;-63
2021/06/19 03:32:10;;;;;;;21.87;18.23;;;;;;;19.68;63.18;100278.17;2041052;87;28842;-63
2021/06/19 03:35:13;;;;;;;21.62;17.20;;;;;;;19.77;63.09;100276.49;2039728;87;31109;-63
2021/06/19 03:38:15;;;;;;;21.10;18.00;;;;;;;19.84;62.98;100272.21;2040887;87;33040;-63
2021/06/19 03:41:18;;;;;;;20.77;15.98;;;;;;;19.89;62.86;100272.19;2040903;87;29397;-63
2021/06/19 03:44:23;;;;;;;19.98;15.72;;;;;;;19.98;62.87;100281.89;2014481;88;27499;-63
2021/06/19 03:47:25;;;;;;;19.57;15.10;;;;;;;20.07;62.79;100281.05;2104956;83;28806;-62
2021/06/19 03:50:29;;;;;;;18.95;14.10;;;;;;;20.14;62.64;100280.87;2066035;85;31180;-64
2021/06/19 03:53:31;;;;;;;17.60;14.55;;;;;;;20.21;62.58;100283.89;2106780;84;32976;-63
2021/06/19 03:56:33;;;;;;;18.52;15.60;;;;;;;20.27;62.50;100275.66;2091349;85;29405;-64
2021/06/19 03:59:36;;;;;;;19.57;14.23;;;;;;;20.34;62.38;100276.84;2091427;85;27445;-63
2021/06/19 04:02:39;;;;;;;16.37;14.23;;;;;;;20.43;62.26;100278.70;2065018;86;28726;-63
2021/06/19 04:05:41;;;;;;;17.15;14.15;;;;;;;20.52;62.21;100285.67;2079573;84;31159;-62
2021/06/19 04:08:44;;;;;;;18.25;16.17;;;;;;;20.61;62.06;100286.17;2106749;84;33049;-63
2021/06/19 04:11:46;;;;;;;24.10;14.63;;;;;;;20.73;61.95;100285.03;2106807;84;29320;-64
2021/06/19 04:14:50;;;;;;;18.20;14.63;;;;;;;20.85;61.95;100288.50;2106558;84;27480;-60
2021/06/19 04:17:52;;;;;;;16.90;14.03;;;;;;;20.97;61.71;100289.71;2091470;85;31264;-63
2021/06/19 04:20:54;;;;;;;16.37;13.40;;;;;;;21.09;61.61;100288.58;2091253;85;31237;-62
2021/06/19 04:23:57;;;;;;;23.15;14.98;;;;;;;21.21;61.43;100291.98;2091292;85;32903;-62
2021/06/19 04:27:00;;;;;;;17.10;14.15;;;;;;;21.34;61.39;100288.47;2106746;84;29428;-62
2021/06/19 04:30:04;;;;;;;16.30;13.85;;;;;;;21.47;61.17;100291.37;2091415;85;27453;-63
2021/06/19 04:33:06;;;;;;;15.83;14.20;;;;;;;21.58;60.98;100281.64;2065242;86;28730;-61
2021/06/19 04:36:08;;;;;;;16.27;14.58;;;;;;;21.74;60.79;100278.33;2079411;84;31174;-61
2021/06/19 04:39:10;;;;;;;14.23;12.53;;;;;;;21.92;60.67;100277.54;2091265;85;33037;-62
2021/06/19 04:42:15;;;;;;;14.28;12.80;;;;;;;22.13;60.32;100276.76;2091344;85;29442;-62
2021/06/19 04:45:17;;;;;;;15.35;13.75;;;;;;;22.33;59.98;100271.71;2062410;86;27454;-62
2021/06/19 04:48:20;;;;;;;14.98;12.25;;;;;;;22.59;59.77;100272.69;2014538;88;28816;-61
2021/06/19 04:51:22;;;;;;;14.70;12.40;;;;;;;23.40;60.00;100277.31;2041011;87;31107;-63
2021/06/19 04:54:24;;;;;;;13.68;11.68;;;;;;;24.50;58.89;100275.23;2014700;88;33667;-61
2021/06/19 04:57:27;;;;;;;14.58;11.90;;;;;;;25.58;57.89;100278.87;2041254;87;29551;-62
2021/06/19 05:00:29;;;;;;;12.07;10.80;;;;;;;26.69;56.55;100276.14;2014526;88;27695;-61
2021/06/19 05:03:31;;;;;;;12.03;10.93;;;;;;;27.82;55.31;100278.23;2041010;87;28793;-62
2021/06/19 05:06:35;;;;;;;11.60;10.45;;;;;;;28.94;53.29;100284.48;2014483;88;31116;-63
2021/06/19 05:09:37;;;;;;;;;;;;;;;29.94;51.91;100286.30;2043171;87;33135;-63
2021/06/19 05:12:43;;;;;;;14.23;10.72;;;;;;;30.87;49.81;100289.10;2040900;87;29254;-62
2021/06/19 05:15:44;;;;;;;13.43;9.98;;;;;;;31.66;48.45;100292.09;2046645;85;27435;-64
2021/06/19 05:18:46;;;;;;;13.25;10.80;;;;;;;32.43;47.38;100297.84;2046595;87;28737;-61
2021/06/19 05:21:48;;;;;;;14.43;10.28;;;;;;;33.22;46.01;100293.08;2046534;87;31185;-63
2021/06/19 05:24:53;;;;;;;12.58;10.35;;;;;;;33.90;44.22;100290.01;2017424;87;35019;-64
2021/06/19 05:27:55;;;;;;;11.25;10.05;;;;;;;34.61;42.80;100282.03;2041008;87;29430;-62
2021/06/19 05:30:58;;;;;;;11.70;9.83;;;;;;;35.32;41.41;100295.83;2014584;88;27612;-65
2021/06/19 05:34:00;;;;;;;14.30;9.88;;;;;;;35.79;39.30;100288.88;2095488;84;28733;-61
2021/06/19 05:37:02;;;;;;;12.20;9.98;;;;;;;36.18;38.31;100287.80;2046569;87;31159;-62
2021/06/19 05:40:07;;;;;;;14.25;10.63;;;;;;;36.45;37.12;100283.05;2046518;85;32956;-61
2021/06/19 05:43:09;;;;;;;18.70;10.93;;;;;;;36.68;36.41;100288.23;2024808;87;29407;-61
2021/06/19 05:46:11;;;;;;;11.15;10.00;;;;;;;36.87;35.34;100288.84;2048485;85;27471;-64
2021/06/19 05:49:14;;;;;;;13.45;11.40;;;;;;;37.23;34.38;100289.48;2091282;85;28809;-63
2021/06/19 05:52:16;;;;;;;13.72;12.07;;;;;;;37.46;33.99;100293.23;2091535;85;31123;-61
2021/06/19 05:55:18;;;;;;;13.40;11.65;;;;;;;37.81;33.04;100297.63;2091233;85;32976;-64
2021/06/19 05:58:21;;;;;;;14.83;11.65;;;;;;;38.21;32.87;100300.41;2091274;85;29401;-64
2021/06/19 06:01:23;;;;;;;15.13;10.90;;;;;;;38.59;32.25;100294.44;2091132;85;27452;-63
2021/06/19 06:04:36;;;;;;;17.32;12.53;;;;;;;38.95;31.84;100299.02;2091260;85;28753;-62
2021/06/19 06:08:00;;;;;;;17.27;11.80;;;;;;;39.33;31.27;100292.06;2047086;87;31123;-62
2021/06/19 06:11:08;;;;;;;10.43;9.30;;;;;;;39.45;30.32;100291.87;2090640;85;30613;-64
2021/06/19 06:14:16;;;;;;;13.85;10.88;;;;;;;39.72;30.05;100292.30;2090907;85;27473;-63
2021/06/19 06:17:39;;;;;;;11.18;9.98;;;;;;;40.02;29.37;100294.46;2090678;85;27525;-62
2021/06/19 06:20:55;;;;;;;13.03;9.58;;;;;;;40.17;28.35;100292.83;2090886;85;27421;-62
2021/06/19 06:24:06;;;;;;;11.20;10.13;;;;;;;40.23;28.12;100288.94;2091073;85;31095;-62
2021/06/19 06:27:15;;;;;;;18.48;10.05;;;;;;;40.24;27.58;100289.22;2090308;85;30232;-66
2021/06/19 06:30:20;;;;;;;12.05;9.53;;;;;;;40.27;27.79;100282.23;2091128;85;29440;-64
2021/06/19 06:33:25;;;;;;;12.80;9.65;;;;;;;40.55;27.36;100282.28;2091287;85;27425;-64
2021/06/19 06:36:26;;;;;;;10.95;9.08;;;;;;;40.31;26.83;100279.98;2090777;85;28725;-63
2021/06/19 06:39:28;;;;;;;16.70;9.45;;;;;;;40.13;26.61;100274.84;2091170;85;31151;-63
2021/06/19 06:42:31;;;;;;;16.00;9.85;;;;;;;40.27;27.04;100271.00;2091311;84;33345;-63
2021/06/19 06:45:33;;;;;;;10.73;9.63;;;;;;;40.51;26.64;100266.55;2091284;85;29409;-62
2021/06/19 06:48:35;;;;;;;11.00;9.83;;;;;;;40.73;26.35;100260.42;2091231;85;27434;-62
2021/06/19 06:51:37;;;;;;;10.90;9.90;;;;;;;40.82;25.45;100255.95;2091194;85;28703;-63
2021/06/19 06:54:40;;;;;;;11.57;9.33;;;;;;;40.62;25.44;100260.39;2065575;85;30919;-63
2021/06/19 06:57:43;;;;;;;13.32;9.15;;;;;;;40.59;25.54;100254.50;2091165;85;33052;-62
2021/06/19 07:00:46;;;;;;;11.95;10.00;;;;;;;40.67;25.73;100257.64;2065479;85;29462;-64
2021/06/19 07:03:50;;;;;;;9.80;8.80;;;;;;;40.92;25.96;100261.56;2052873;86;27554;-64
2021/06/19 07:06:52;;;;;;;13.53;8.78;;;;;;;41.05;25.23;100264.92;2052672;86;28739;-65
2021/06/19 07:09:54;;;;;;;12.15;9.28;;;;;;;41.25;25.71;100259.90;2091172;85;31095;-65
2021/06/19 07:12:56;;;;;;;10.68;9.05;;;;;;;41.68;25.76;100263.19;2091418;84;33576;-65
2021/06/19 07:15:58;;;;;;;16.10;9.15;;;;;;;42.02;25.29;100256.06;2091212;84;29552;-64
2021/06/19 07:19:01;;;;;;;12.88;9.83;;;;;;;42.33;25.08;100260.11;2091287;84;27500;-64
2021/06/19 07:22:04;;;;;;;10.85;9.55;;;;;;;42.57;24.83;100250.41;2091187;85;29357;-62
2021/06/19 07:25:09;;;;;;;11.75;8.70;;;;;;;42.71;24.62;100249.73;2066055;85;31105;-62
2021/06/19 07:28:11;;;;;;;14.47;9.73;;;;;;;42.82;24.38;100252.77;2091372;85;32967;-63
2021/06/19 07:31:13;;;;;;;11.40;10.03;;;;;;;42.96;23.91;100261.39;2091615;85;29415;-63
2021/06/19 07:34:15;;;;;;;18.37;10.18;;;;;;;42.78;23.67;100251.63;2053060;86;27529;-63
2021/06/19 07:37:18;;;;;;;9.87;8.87;;;;;;;42.73;23.72;100253.11;2091343;85;28816;-63
2021/06/19 07:40:20;;;;;;;11.50;9.88;;;;;;;42.78;23.65;100247.41;2091485;84;31099;-61
2021/06/19 07:43:23;;;;;;;12.13;9.23;;;;;;;42.59;22.98;100243.06;2065793;85;34349;-61
2021/06/19 07:46:26;;;;;;;15.38;10.98;;;;;;;42.40;23.26;100234.47;2094191;84;29386;-61
2021/06/19 07:49:27;;;;;;;11.12;10.00;;;;;;;42.39;23.57;100234.20;2091719;84;27454;-60
2021/06/19 07:52:30;;;;;;;11.45;9.08;;;;;;;42.57;23.70;100232.09;2065389;86;28790;-61
2021/06/19 07:55:33;;;;;;;10.75;9.58;;;;;;;42.62;23.34;100237.67;2091483;84;31099;-60
2021/06/19 07:58:35;;;;;;;14.18;9.60;;;;;;;42.70;23.61;100237.61;2091682;85;33052;-61
2021/06/19 08:01:37;;;;;;;11.57;9.90;;;;;;;42.80;23.46;100241.80;2107029;84;29447;-62
2021/06/19 08:04:42;;;;;;;11.55;10.35;;;;;;;42.71;23.33;100237.88;2091709;85;27473;-62
2021/06/19 08:07:43;;;;;;;10.25;8.88;;;;;;;42.72;23.20;100237.33;2065140;86;28902;-62
2021/06/19 08:10:46;;;;;;;11.00;9.90;;;;;;;42.68;23.01;100231.45;2091586;85;31135;-61
2021/06/19 08:13:50;;;;;;;11.73;8.73;;;;;;;42.58;23.10;100232.92;2065769;85;30616;-61
2021/06/19 08:16:54;;;;;;;9.75;8.95;;;;;;;42.43;22.93;100238.95;2106801;84;29401;-62
2021/06/19 08:19:57;;;;;;;11.08;9.50;;;;;;;42.28;23.18;100242.66;2091405;85;27497;-61
2021/06/19 08:23:00;;;;;;;10.75;9.43;;;;;;;42.14;22.76;100245.84;2091363;85;28640;-61
2021/06/19 08:26:02;;;;;;;12.75;9.28;;;;;;;41.90;23.14;100242.30;2091136;85;31125;-62
2021/06/19 08:29:05;;;;;;;10.28;9.23;;;;;;;41.83;23.41;100239.80;2106749;84;33126;-62
2021/06/19 08:32:08;;;;;;;13.22;9.78;;;;;;;41.87;23.56;100246.50;2091323;85;29400;-62
2021/06/19 08:35:11;;;;;;;;;;;;;;;41.72;23.56;100242.34;2093950;85;27690;-62
2021/06/19 08:38:13;;;;;;;15.27;10.57;;;;;;;41.67;23.75;100239.58;2091594;85;28753;-61
2021/06/19 08:41:16;;;;;;;12.17;9.57;;;;;;;41.67;23.78;100236.19;2091549;85;31079;-62
2021/06/19 08:44:27;;;;;;;10.55;9.53;;;;;;;41.63;23.71;100241.27;2106877;84;33183;-60
2021/06/19 08:47:35;;;;;;;12.68;9.58;;;;;;;41.44;23.64;100244.12;2089584;85;28921;-61
2021/06/19 08:50:37;;;;;;;12.00;10.28;;;;;;;41.01;23.50;100243.03;2087262;84;27701;-61
2021/06/19 08:53:37;;;;;;;12.82;9.93;;;;;;;40.83;24.07;100237.98;2061705;85;28726;-61
2021/06/19 08:56:41;;;;;;;12.73;9.78;;;;;;;40.71;24.57;100236.84;2087931;85;31087;-63
2021/06/19 08:59:49;;;;;;;11.15;10.03;;;;;;;40.59;24.63;100236.25;2087922;85;33037;-63
2021/06/19 09:02:52;;;;;;;11.53;9.90;;;;;;;40.53;24.33;100236.23;2087926;85;29339;-62
2021/06/19 09:05:56;;;;;;;;;;;;;;;40.28;24.37;100233.39;2090570;85;27481;-63
2021/06/19 09:09:15;;;;;;;11.90;9.03;;;;;;;40.10;24.86;100228.55;2093124;84;28765;-63
2021/06/19 09:12:17;;;;;;;12.90;10.03;;;;;;;40.01;24.78;100227.37;2087950;85;31021;-62
2021/06/19 09:15:20;;;;;;;11.93;9.88;;;;;;;39.72;24.51;100222.19;2061662;86;33071;-61
2021/06/19 09:18:28;;;;;;;15.48;10.35;;;;;;;39.37;24.79;100225.95;2088065;85;29440;-62
2021/06/19 09:21:35;;;;;;;13.03;9.58;;;;;;;39.09;25.14;100222.92;2088015;85;27528;-62
2021/06/19 09:24:52;;;;;;;10.85;9.55;;;;;;;38.90;25.62;100224.17;2087958;85;28704;-61
2021/06/19 09:27:56;;;;;;;11.22;8.93;;;;;;;38.86;25.60;100222.18;2087617;85;31170;-61
2021/06/19 09:30:59;;;;;;;10.35;8.63;;;;;;;38.60;25.58;100223.34;2087577;85;57275;-61
2021/06/19 09:34:18;;;;;;;12.65;8.80;;;;;;;38.39;26.04;100218.94;2088033;85;29538;-62
2021/06/19 09:37:22;;;;;;;15.93;9.83;;;;;;;38.35;26.15;100221.09;2088040;85;27478;-63
2021/06/19 09:40:37;;;;;;;13.00;9.83;;;;;;;38.17;26.40;100223.69;2071097;85;28732;-61
2021/06/19 09:43:45;;;;;;;13.43;9.23;;;;;;;37.92;26.42;100228.72;2088032;85;31677;-61
2021/06/19 09:46:58;;;;;;;9.78;7.97;;;;;;;37.65;26.82;100221.62;2087883;84;32955;-61
2021/06/19 09:50:05;;;;;;;14.10;9.45;;;;;;;37.43;26.96;100218.28;2087991;84;29374;-61
2021/06/19 09:53:14;;;;;;;12.93;9.10;;;;;;;37.10;27.17;100211.61;2088035;84;27531;-61
2021/06/19 09:56:20;;;;;;;7.58;6.45;;;;;;;36.86;27.55;100214.55;2087908;85;28748;-62
2021/06/19 09:59:34;;;;;;;12.37;9.00;;;;;;;36.78;27.61;100206.61;2087860;85;31265;-62
2021/06/19 10:02:36;;;;;;;;;;;;;;;36.72;28.05;100218.77;2090282;85;33032;-61
2021/06/19 10:05:39;;;;;;;16.27;8.13;;;;;;;36.64;28.00;100218.64;2087889;85;29330;-62
2021/06/19 10:08:47;;;;;;;10.68;7.20;;;;;;;36.51;28.08;100218.97;2088098;85;27624;-62
2021/06/19 10:11:52;;;;;;;10.15;6.62;;;;;;;36.36;27.56;100205.01;2087919;85;28692;-61
2021/06/19 10:15:11;;;;;;;9.55;6.45;;;;;;;36.22;27.75;100204.45;2095167;84;31073;-62
2021/06/19 10:18:13;;;;;;;10.05;5.65;;;;;;;36.04;27.75;100199.94;2087441;85;33182;-62
2021/06/19 10:21:15;;;;;;;7.85;6.95;;;;;;;35.89;27.30;100199.91;2087840;85;29434;-62
2021/06/19 10:24:18;;;;;;;7.05;6.05;;;;;;;35.63;27.36;100202.70;2087943;85;27461;-61
2021/06/19 10:27:22;;;;;;;6.30;5.62;;;;;;;35.46;27.82;100198.97;2087996;85;28758;-62
2021/06/19 10:30:25;;;;;;;5.47;4.65;;;;;;;35.34;27.76;100197.55;2087832;85;31065;-63
2021/06/19 10:33:32;;;;;;;7.37;5.15;;;;;;;35.24;27.86;100192.59;2087805;85;33039;-65
2021/06/19 10:36:38;;;;;;;5.62;5.12;;;;;;;35.15;27.77;100183.76;2070365;85;29533;-61
2021/06/19 10:39:44;;;;;;;7.37;6.03;;;;;;;35.06;28.03;100182.44;2087936;85;27510;-62
2021/06/19 10:42:47;;;;;;;7.58;5.15;;;;;;;35.02;28.12;100171.48;2087848;85;28715;-63
2021/06/19 10:45:50;;;;;;;6.97;5.53;;;;;;;34.89;28.18;100175.31;2087821;85;31059;-63
2021/06/19 10:48:54;;;;;;;5.95;5.22;;;;;;;34.76;28.02;100168.89;2087561;85;33033;-65
2021/06/19 10:52:34;;;;;;;6.78;4.78;;;;;;;34.66;27.84;100165.86;2095459;84;29474;-63
2021/06/19 10:55:53;;;;;;;6.08;5.40;;;;;;;34.44;27.82;100171.12;2087947;85;27602;-63
2021/06/19 10:59:20;;;;;;;9.30;5.03;;;;;;;34.24;28.39;100169.48;2087894;84;28730;-63
2021/06/19 11:02:27;;;;;;;5.78;4.28;;;;;;;34.16;28.95;100162.33;2087081;84;31125;-63
2021/06/19 11:05:52;;;;;;;4.92;4.17;;;;;;;34.04;28.53;100160.02;2085334;85;33081;-63
2021/06/19 11:09:15;;;;;;;4.95;4.45;;;;;;;33.99;28.76;100153.78;2087869;85;29347;-63
2021/06/19 11:12:32;;;;;;;7.33;6.12;;;;;;;33.93;28.96;100145.85;2087320;84;27439;-63
2021/06/19 11:15:34;;;;;;;6.03;5.42;;;;;;;33.88;29.49;100146.22;2087872;84;28818;-64
2021/06/19 11:18:54;;;;;;;7.58;6.03;;;;;;;33.87;29.30;100143.97;2087500;85;31189;-63
2021/06/19 11:22:35;;;;;;;7.30;6.28;;;;;;;33.88;29.69;100144.83;2087592;84;33036;-64
2021/06/19 11:25:51;;;;;;;7.15;6.45;;;;;;;33.90;29.79;100146.88;2087830;85;29377;-63
2021/06/19 11:28:46;;;;;;;8.05;5.12;;;;;;;33.85;29.93;100142.52;2086873;84;27445;-63
2021/06/19 11:31:48;;;;;;;7.50;6.78;;;;;;;33.81;29.69;100142.67;2087852;84;28796;-63
2021/06/19 11:34:58;;;;;;;6.03;5.53;;;;;;;33.81;29.98;100133.81;2087804;85;31155;-63
2021/06/19 11:38:01;;;;;;;6.12;5.53;;;;;;;33.90;29.90;100134.37;2087801;85;33048;-63
2021/06/19 11:41:13;;;;;;;6.87;6.17;;;;;;;34.03;29.61;100134.17;2088051;85;29403;-64
2021/06/19 11:44:17;;;;;;;8.78;7.35;;;;;;;34.12;30.16;100128.26;2087948;85;27481;-64
2021/06/19 11:47:19;;;;;;;8.35;6.70;;;;;;;34.22;30.25;100126.60;2087682;85;28794;-64
2021/06/19 11:50:30;;;;;;;8.58;7.75;;;;;;;34.31;30.28;100124.88;2087812;85;31137;-64
2021/06/19 11:53:38;;;;;;;9.40;6.62;;;;;;;34.35;30.59;100119.98;2087443;84;33098;-64
2021/06/19 11:56:42;;;;;;;10.72;6.58;;;;;;;34.38;30.30;100126.47;2087791;85;29450;-64
2021/06/19 11:59:44;;;;;;;7.22;6.53;;;;;;;34.34;29.50;100125.77;2088048;85;27625;-64
2021/06/19 12:02:53;;;;;;;7.15;6.30;;;;;;;34.23;29.60;100120.52;2087804;85;28631;-64
2021/06/19 12:05:55;;;;;;;8.30;7.50;;;;;;;34.14;29.82;100120.01;2087813;85;31105;-64
2021/06/19 12:08:58;;;;;;;8.93;7.33;;;;;;;34.00;30.14;100108.78;2087781;85;33054;-63
2021/06/19 12:12:05;;;;;;;7.10;6.50;;;;;;;33.93;30.39;100109.72;2071300;85;34674;-64
2021/06/19 12:15:08;;;;;;;7.60;6.62;;;;;;;33.86;30.05;100106.14;2087854;84;27469;-63
2021/06/19 12:18:19;;;;;;;7.55;6.85;;;;;;;33.74;30.03;100102.48;2087698;84;32175;-62
2021/06/19 12:21:32;;;;;;;9.15;7.55;;;;;;;33.72;30.20;100101.86;2087933;85;31088;-63
2021/06/19 12:24:37;;;;;;;6.83;6.13;;;;;;;33.72;30.31;100097.69;2087653;84;33047;-63
2021/06/19 12:27:40;;;;;;;7.87;7.08;;;;;;;33.76;30.53;100096.14;2087842;85;29324;-63
2021/06/19 12:30:55;;;;;;;6.83;6.22;;;;;;;33.77;30.65;100097.28;2088050;85;27567;-63
2021/06/19 12:34:03;;;;;;;7.20;6.60;;;;;;;33.80;30.86;100094.59;2087975;85;28785;-62
2021/06/19 12:37:05;;;;;;;5.20;4.80;;;;;;;33.82;30.63;100092.44;2095419;84;31127;-63
2021/06/19 12:40:13;;;;;;;9.05;6.22;;;;;;;33.85;30.31;100086.94;2087910;84;33631;-63
2021/06/19 12:43:16;;;;;;;6.80;6.12;;;;;;;33.88;29.88;100084.52;2071950;85;29446;-63
2021/06/19 12:46:21;;;;;;;5.03;4.62;;;;;;;33.79;29.11;100080.39;2088156;85;27495;-63
2021/06/19 12:49:26;;;;;;;7.42;6.75;;;;;;;33.72;29.69;100080.50;2072289;84;28813;-63
2021/06/19 12:52:27;;;;;;;7.67;6.30;;;;;;;33.66;30.08;100083.37;2065283;85;31270;-63
2021/06/19 12:55:33;;;;;;;8.13;6.78;;;;;;;33.65;30.06;100076.95;2091262;85;33037;-63
2021/06/19 12:58:45;;;;;;;6.87;6.22;;;;;;;33.62;29.98;100076.02;2090936;85;29447;-62
2021/06/19 13:02:04;;;;;;;7.20;6.50;;;;;;;33.59;29.81;100073.19;2091379;85;27447;-62
2021/06/19 13:05:18;;;;;;;6.50;5.87;;;;;;;33.53;29.66;100071.33;2090782;85;28616;-62
2021/06/19 13:08:22;;;;;;;8.05;6.03;;;;;;;33.40;29.56;100074.30;2091641;85;31226;-63
2021/06/19 13:11:31;;;;;;;9.95;8.95;;;;;;;33.27;29.03;100064.16;2090937;85;33193;-63
2021/06/19 13:14:32;;;;;;;11.97;10.85;;;;;;;33.16;29.26;100062.48;2091058;85;29490;-64
2021/06/19 13:17:46;;;;;;;9.75;6.35;;;;;;;33.06;29.89;100058.02;2091349;85;27652;-62
2021/06/19 13:20:59;;;;;;;6.28;5.58;;;;;;;33.00;30.55;100055.64;2091436;85;28717;-62
2021/06/19 13:24:31;;;;;;;9.00;8.03;;;;;;;32.98;30.88;100062.48;2086851;85;31183;-61
2021/06/19 13:27:33;;;;;;;6.35;5.70;;;;;;;32.93;30.64;100052.63;2091300;84;33196;-62
2021/06/19 13:30:35;;;;;;;6.67;5.47;;;;;;;32.92;30.07;100055.09;2091306;85;29342;-61
2021/06/19 13:34:02;;;;;;;6.65;4.75;;;;;;;32.91;30.09;100057.00;2066029;85;27516;-61
2021/06/19 13:37:09;;;;;;;7.75;7.10;;;;;;;32.90;30.35;100060.02;2091315;85;28713;-62
2021/06/19 13:40:13;;;;;;;17.90;14.90;;;;;;;32.81;30.17;100049.20;2091230;85;31108;-62
2021/06/19 13:43:15;;;;;;;315.00;235.80;;;;;;;32.75;30.08;100052.89;2052683;86;33047;-61
2021/06/19 13:46:18;;;;;;;112.25;74.58;;;;;;;32.72;30.15;100054.17;2047161;86;29402;-61
2021/06/19 13:49:23;;;;;;;36.35;24.47;;;;;;;32.70;29.67;100047.17;2070163;85;27514;-62
2021/06/19 13:52:25;;;;;;;38.50;30.52;;;;;;;32.68;29.70;100037.67;2046778;86;28838;-62
2021/06/19 13:55:28;;;;;;;85.05;63.35;;;;;;;32.69;29.58;100039.38;1955193;90;32405;-62
2021/06/19 13:58:31;;;;;;;65.72;48.40;;;;;;;32.71;29.49;100033.61;1978582;90;33033;-62
2021/06/19 14:01:33;;;;;;;56.30;31.27;;;;;;;32.71;29.53;100019.19;1978371;90;29408;-62
2021/06/19 14:04:38;;;;;;;106.22;61.08;;;;;;;32.70;29.72;100008.34;1978451;90;27495;-62
2021/06/19 14:07:40;;;;;;;125.12;86.30;;;;;;;32.70;29.55;100005.01;1978392;90;28721;-62
2021/06/19 14:10:46;;;;;;;251.05;206.40;;;;;;;32.68;29.73;100000.78;1978345;90;31193;-62